Time;durP1;ratioP1;P1;durP2;ratioP2;P2;SDS_P1;SDS_P2;PMS_P1;PMS_P2;Temp;Humidity;BMP_temperature;BMP_pressure;BME280_temperature;BME280_humidity;BME280_pressure;Samples;Min_cycle;Max_cycle;Signal;HPM_P1;HPM_P2
2023/01/12 00:02:06;;;;;;;0.10;0.10;;;;;;;12.56;78.89;98786.78;7361630;19;20006;-56
2023/01/12 00:04:31;;;;;;;0.00;0.00;;;;;;;12.68;78.51;98816.66;7360957;19;20118;-57
2023/01/12 00:06:58;;;;;;;0.00;0.00;;;;;;;12.71;78.80;98812.03;7360030;19;20566;-57
2023/01/12 00:09:23;;;;;;;0.10;0.10;;;;;;;12.73;78.36;98815.44;7360120;19;20090;-57
2023/01/12 00:11:49;;;;;;;0.10;0.10;;;;;;;12.79;78.31;98818.59;7359717;19;20067;-58
2023/01/12 00:14:14;;;;;;;0.10;0.10;;;;;;;12.81;78.57;98842.91;7356862;19;20014;-58
2023/01/12 00:16:40;;;;;;;0.10;0.10;;;;;;;12.69;78.55;98834.88;7361731;19;20010;-57
2023/01/12 00:19:09;;;;;;;0.10;0.10;;;;;;;12.83;78.63;98851.53;7360317;19;20018;-57
2023/01/12 00:21:39;;;;;;;0.10;0.10;;;;;;;12.81;78.13;98849.00;7362816;19;20010;-57
2023/01/12 00:24:07;;;;;;;0.10;0.10;;;;;;;12.83;78.06;98881.19;7360075;19;20483;-57
2023/01/12 00:26:32;;;;;;;0.05;0.05;;;;;;;12.88;78.01;98870.44;7362129;19;20018;-57
2023/01/12 00:28:58;;;;;;;0.10;0.10;;;;;;;12.86;78.07;98861.81;7362083;19;20006;-58
2023/01/12 00:31:23;;;;;;;0.00;0.00;;;;;;;12.84;78.35;98858.44;7353582;19;20559;-57
2023/01/12 00:33:49;;;;;;;0.10;0.10;;;;;;;12.85;78.34;98870.59;7359367;19;20034;-57
2023/01/12 00:36:17;;;;;;;0.05;0.05;;;;;;;12.85;78.06;98871.44;7360131;19;20466;-57
2023/01/12 00:38:42;;;;;;;0.10;0.10;;;;;;;12.81;78.32;98869.09;7359489;19;20018;-57
2023/01/12 00:41:10;;;;;;;0.10;0.10;;;;;;;12.84;78.31;98884.66;7359009;19;21178;-58
2023/01/12 00:46:31;;;;;;;0.00;0.00;;;;;;;12.85;78.26;98891.56;7359146;19;20038;-57
2023/01/12 00:48:57;;;;;;;0.00;0.00;;;;;;;12.85;78.50;98891.56;7362268;19;20106;-57
2023/01/12 00:51:22;;;;;;;0.10;0.10;;;;;;;12.79;78.08;98887.53;7360294;19;20319;-57
2023/01/12 00:53:48;;;;;;;0.10;0.10;;;;;;;12.83;78.04;98901.31;7360952;19;20010;-57
2023/01/12 00:56:13;;;;;;;0.10;0.10;;;;;;;12.80;78.18;98910.19;7357541;19;20055;-57
2023/01/12 00:58:38;;;;;;;0.10;0.10;;;;;;;12.80;78.19;98917.19;7363907;19;20007;-57
2023/01/12 01:01:07;;;;;;;0.10;0.10;;;;;;;12.73;78.00;98907.09;7356379;19;20126;-57
2023/01/12 01:03:34;;;;;;;0.10;0.10;;;;;;;12.75;78.00;98912.22;7359719;19;20007;-58
2023/01/12 01:06:03;;;;;;;0.10;0.10;;;;;;;12.72;78.37;98917.63;7358333;19;20022;-57
2023/01/12 01:08:29;;;;;;;0.10;0.10;;;;;;;12.69;78.25;98918.69;7364221;19;20010;-57
2023/01/12 01:11:07;;;;;;;0.10;0.10;;;;;;;12.66;78.25;98907.53;7368629;19;20011;-57
2023/01/12 01:13:35;;;;;;;0.00;0.00;;;;;;;12.69;78.55;98915.22;7362237;19;20091;-58
2023/01/12 01:16:02;;;;;;;0.00;0.00;;;;;;;12.63;78.11;98921.66;7357839;19;20003;-58
2023/01/12 01:18:28;;;;;;;0.00;0.00;;;;;;;12.66;78.11;98939.81;7361252;19;20014;-57
2023/01/12 01:20:54;;;;;;;0.03;0.03;;;;;;;12.63;78.25;98934.75;7358869;19;20372;-57
2023/01/12 01:23:21;;;;;;;0.10;0.10;;;;;;;12.64;78.19;98933.00;7361508;19;20641;-58
2023/01/12 01:25:46;;;;;;;0.00;0.00;;;;;;;12.64;78.27;98936.44;7357981;19;20585;-57
2023/01/12 01:28:12;;;;;;;0.05;0.05;;;;;;;12.60;78.68;98924.47;7359629;19;20011;-57
2023/01/12 01:30:38;;;;;;;0.10;0.10;;;;;;;12.66;78.30;98939.81;7355648;19;20078;-57
2023/01/12 01:33:03;;;;;;;0.10;0.10;;;;;;;12.64;78.69;98940.84;7358898;19;20102;-57
2023/01/12 01:35:28;;;;;;;0.00;0.00;;;;;;;12.64;78.26;98928.59;7363492;19;20010;-57
2023/01/12 01:37:54;;;;;;;0.00;0.00;;;;;;;12.63;78.13;98934.75;7359619;19;20010;-58
2023/01/12 01:40:19;;;;;;;0.10;0.10;;;;;;;12.61;78.36;98936.63;7356547;19;20018;-58
2023/01/12 01:42:45;;;;;;;0.00;0.00;;;;;;;12.59;78.26;98938.50;7363265;19;20425;-58
2023/01/12 01:45:12;;;;;;;0.03;0.03;;;;;;;12.59;78.43;98943.72;7362979;19;20003;-56
2023/01/12 01:47:46;;;;;;;0.10;0.10;;;;;;;12.59;78.87;98946.34;7367025;19;20070;-57
2023/01/12 01:50:18;;;;;;;0.10;0.10;;;;;;;12.59;78.63;98938.50;7364972;19;20003;-57
2023/01/12 01:52:49;;;;;;;0.03;0.03;;;;;;;12.59;78.46;98967.28;7365129;19;20014;-57
2023/01/12 01:55:32;;;;;;;0.10;0.10;;;;;;;12.58;78.70;98973.47;7365152;19;20042;-57
2023/01/12 01:58:01;;;;;;;0.10;0.10;;;;;;;12.57;78.49;98961.31;7362789;19;20024;-57
2023/01/12 02:00:27;;;;;;;0.00;0.00;;;;;;;12.55;78.43;98957.94;7365072;19;20037;-57
2023/01/12 02:02:54;;;;;;;0.10;0.10;;;;;;;12.56;78.66;98957.00;7360649;19;20010;-57
2023/01/12 02:05:23;;;;;;;0.00;0.00;;;;;;;12.57;78.75;98958.69;7364636;19;20039;-57
2023/01/12 02:07:49;;;;;;;0.00;0.00;;;;;;;12.47;78.57;98947.09;7359503;19;20010;-57
2023/01/12 02:10:16;;;;;;;0.00;0.00;;;;;;;12.53;78.80;98959.81;7365641;19;20006;-57
2023/01/12 02:18:41;;;;;;;0.10;0.10;;;;;;;12.51;78.32;98956.41;7263567;19;2004556;-57
2023/01/12 02:21:32;;;;;;;0.10;0.10;;;;;;;12.46;78.60;98975.00;7366203;19;22019;-57
2023/01/12 02:24:11;;;;;;;0.10;0.10;;;;;;;12.43;78.54;98979.59;7263237;19;2004247;-57
2023/01/12 02:27:06;;;;;;;0.10;0.10;;;;;;;12.39;78.46;98978.94;7366478;19;20010;-57
2023/01/12 02:29:37;;;;;;;0.00;0.00;;;;;;;12.35;78.59;98976.56;7263126;19;2004338;-57
2023/01/12 02:32:24;;;;;;;0.00;0.00;;;;;;;12.33;78.87;98957.50;7358509;19;20074;-57
2023/01/12 02:35:09;;;;;;;0.00;0.00;;;;;;;12.31;78.63;98972.44;7363680;19;20006;-57
2023/01/12 02:37:45;;;;;;;0.00;0.00;;;;;;;12.21;78.92;98966.88;7366079;19;20017;-56
2023/01/12 02:40:18;;;;;;;0.00;0.00;;;;;;;12.28;79.19;98975.25;7363795;19;20014;-57
2023/01/12 02:42:53;;;;;;;0.03;0.03;;;;;;;12.25;78.88;98978.03;7363544;19;19999;-57
2023/01/12 02:45:41;;;;;;;0.00;0.00;;;;;;;12.25;79.03;98970.19;7362832;19;20006;-56
2023/01/12 02:48:21;;;;;;;0.10;0.10;;;;;;;12.24;79.38;98978.97;7364148;19;20002;-56
2023/01/12 02:51:20;;;;;;;0.05;0.05;;;;;;;12.25;79.55;98980.63;7362601;19;20027;-56
2023/01/12 02:53:50;;;;;;;0.00;0.00;;;;;;;12.15;79.35;98989.00;7258508;19;2004136;-57
2023/01/12 02:56:21;;;;;;;0.10;0.10;;;;;;;12.22;79.63;98991.31;7362987;19;20042;-57
2023/01/12 02:58:52;;;;;;;0.10;0.10;;;;;;;12.22;79.64;98992.16;7346266;19;20356;-57
2023/01/12 03:01:19;;;;;;;0.03;0.03;;;;;;;12.21;79.51;98990.44;7363124;19;20014;-57
2023/01/12 03:03:47;;;;;;;0.10;0.10;;;;;;;12.20;79.22;98997.44;7360904;19;20065;-57
2023/01/12 03:06:16;;;;;;;0.10;0.10;;;;;;;12.21;79.35;99000.91;7361611;19;20002;-57
2023/01/12 03:08:43;;;;;;;0.08;0.08;;;;;;;12.15;79.13;98996.84;7360080;19;20010;-57
2023/01/12 03:11:15;;;;;;;0.10;0.10;;;;;;;12.21;79.56;99000.91;7363349;19;20034;-56
2023/01/12 03:13:46;;;;;;;0.00;0.00;;;;;;;12.22;79.51;99009.63;7358708;19;20569;-57
2023/01/12 03:16:16;;;;;;;0.00;0.00;;;;;;;12.22;79.52;99012.25;7361834;19;20017;-57
2023/01/12 03:18:54;;;;;;;0.10;0.10;;;;;;;12.14;79.32;99005.66;7358832;19;20052;-57
2023/01/12 03:21:27;;;;;;;0.00;0.00;;;;;;;12.24;79.61;99016.44;7363370;19;20565;-57
2023/01/12 03:24:14;;;;;;;0.10;0.10;;;;;;;12.25;79.69;99004.19;7361946;19;20526;-57
2023/01/12 03:26:48;;;;;;;0.05;0.05;;;;;;;12.25;79.66;99022.50;7363010;19;20408;-57
2023/01/12 03:29:36;;;;;;;0.10;0.10;;;;;;;12.25;79.28;99025.13;7357943;19;20015;-57
2023/01/12 03:32:02;;;;;;;0.10;0.10;;;;;;;12.13;79.55;99000.50;7360829;19;20014;-57
2023/01/12 03:34:29;;;;;;;0.00;0.00;;;;;;;12.19;79.71;99010.63;7361749;19;20017;-57
2023/01/12 03:37:02;;;;;;;0.00;0.00;;;;;;;12.25;79.40;99014.66;7363776;19;20346;-57
2023/01/12 03:39:49;;;;;;;0.05;0.05;;;;;;;12.26;79.35;99014.56;7360911;19;20016;-55
2023/01/12 03:42:22;;;;;;;0.00;0.00;;;;;;;12.25;79.72;99020.75;7363074;19;20021;-56
2023/01/12 03:44:53;;;;;;;0.10;0.10;;;;;;;12.25;79.23;99020.75;7354299;19;20014;-57
2023/01/12 03:47:24;;;;;;;0.03;0.03;;;;;;;12.27;79.58;99025.91;7367626;19;20021;-56
2023/01/12 03:50:01;;;;;;;0.10;0.10;;;;;;;12.27;79.47;99012.81;7356408;19;20463;-57
2023/01/12 03:52:29;;;;;;;0.05;0.05;;;;;;;12.24;79.37;99023.44;7360748;19;20002;-57
2023/01/12 03:54:58;;;;;;;0.08;0.08;;;;;;;12.12;79.36;98991.81;7362957;19;20006;-57
2023/01/12 03:57:24;;;;;;;0.00;0.00;;;;;;;12.18;79.16;99006.31;7364032;19;20010;-57
2023/01/12 03:59:49;;;;;;;0.10;0.10;;;;;;;12.16;79.12;99009.00;7356512;19;20011;-57
2023/01/12 04:02:14;;;;;;;0.00;0.00;;;;;;;12.15;79.00;99007.31;7362274;19;20374;-57
2023/01/12 04:04:40;;;;;;;0.08;0.08;;;;;;;12.10;79.05;99014.59;7341768;19;20066;-57
2023/01/12 04:07:05;;;;;;;0.10;0.10;;;;;;;12.07;79.08;99012.16;7361397;19;20102;-57
2023/01/12 04:09:31;;;;;;;0.10;0.10;;;;;;;12.07;79.03;99008.72;7356665;19;20006;-58
2023/01/12 04:12:12;;;;;;;0.10;0.10;;;;;;;12.06;79.23;99007.84;7363593;19;20026;-57
2023/01/12 04:14:39;;;;;;;0.10;0.10;;;;;;;12.04;79.38;99007.09;7360817;19;20025;-58
2023/01/12 04:17:06;;;;;;;0.03;0.03;;;;;;;12.03;79.24;98997.56;7355997;19;20021;-57
2023/01/12 04:19:31;;;;;;;0.00;0.00;;;;;;;11.96;79.19;98983.13;7361172;19;20011;-57
2023/01/12 04:24:40;;;;;;;0.10;0.10;;;;;;;11.97;79.06;98987.44;7362465;19;20090;-57
2023/01/12 04:27:06;;;;;;;0.05;0.05;;;;;;;11.95;79.00;98978.81;7361730;19;21943;-57
2023/01/12 04:29:31;;;;;;;0.10;0.10;;;;;;;11.92;79.35;98976.41;7358077;19;20014;-57
2023/01/12 04:31:56;;;;;;;0.00;0.00;;;;;;;11.79;79.06;98972.72;7360951;19;20024;-57
2023/01/12 04:34:22;;;;;;;0.05;0.05;;;;;;;11.88;79.37;98972.25;7358143;19;20022;-57
2023/01/12 04:36:48;;;;;;;0.10;0.10;;;;;;;11.87;79.10;98975.81;7361466;19;20602;-57
2023/01/12 04:39:13;;;;;;;0.10;0.10;;;;;;;11.84;79.07;98966.34;7356211;19;20010;-57
2023/01/12 04:41:38;;;;;;;0.00;0.00;;;;;;;11.82;79.34;98962.16;7363325;19;20010;-57
2023/01/12 04:44:04;;;;;;;0.03;0.03;;;;;;;11.81;79.51;98968.25;7358354;19;20023;-57
2023/01/12 04:46:29;;;;;;;0.08;0.08;;;;;;;11.81;79.43;98968.25;7358699;19;20010;-57
2023/01/12 04:48:55;;;;;;;0.10;0.10;;;;;;;11.67;79.56;98953.34;7359592;19;20010;-58
2023/01/12 04:51:20;;;;;;;0.10;0.10;;;;;;;11.76;79.53;98973.75;7361836;19;20015;-57
2023/01/12 04:53:47;;;;;;;0.00;0.00;;;;;;;11.74;79.15;98962.53;7359433;19;20029;-57
2023/01/12 04:56:12;;;;;;;0.00;0.00;;;;;;;11.70;79.44;98948.75;7355580;19;20014;-57
2023/01/12 04:58:38;;;;;;;0.10;0.10;;;;;;;11.71;79.42;98939.16;7360869;19;20021;-57
2023/01/12 05:01:11;;;;;;;0.10;0.10;;;;;;;11.72;79.44;98945.25;7356091;19;20017;-57
2023/01/12 05:03:37;;;;;;;0.00;0.00;;;;;;;11.67;78.96;98946.34;7365508;19;20015;-57
2023/01/12 05:06:03;;;;;;;0.05;0.05;;;;;;;11.58;79.27;98928.53;7362232;19;21238;-58
2023/01/12 05:11:12;;;;;;;0.10;0.10;;;;;;;11.61;79.41;98944.06;7360667;19;20040;-57
2023/01/12 05:13:38;;;;;;;0.00;0.00;;;;;;;11.59;79.49;98935.44;7361553;19;20112;-57
2023/01/12 05:16:13;;;;;;;0.00;0.00;;;;;;;11.58;79.32;98936.38;7359256;19;20710;-57
2023/01/12 05:18:39;;;;;;;0.10;0.10;;;;;;;11.54;79.48;98940.06;7363624;19;20014;-57
2023/01/12 05:21:04;;;;;;;0.10;0.10;;;;;;;11.54;79.59;98927.00;7366495;19;21046;-58
2023/01/12 05:23:30;;;;;;;0.00;0.00;;;;;;;11.53;79.67;98920.09;7364029;19;20094;-57
2023/01/12 05:26:00;;;;;;;0.00;0.00;;;;;;;11.56;79.94;98909.50;7367214;19;20010;-57
2023/01/12 05:28:27;;;;;;;0.00;0.00;;;;;;;11.56;79.77;98899.03;7367093;19;20729;-57
2023/01/12 05:30:52;;;;;;;0.10;0.10;;;;;;;11.58;79.62;98907.63;7362521;19;21909;-57
2023/01/12 05:33:18;;;;;;;0.03;0.03;;;;;;;11.61;80.06;98901.41;7365935;19;20451;-57
2023/01/12 05:35:44;;;;;;;0.00;0.00;;;;;;;11.60;79.63;98897.91;7365689;19;20006;-57
2023/01/12 05:38:10;;;;;;;0.10;0.10;;;;;;;11.62;79.75;98893.47;7362834;19;20079;-57
2023/01/12 05:40:35;;;;;;;0.10;0.10;;;;;;;11.61;79.63;98875.25;7367078;19;20724;-58
2023/01/12 05:45:45;;;;;;;0.10;0.10;;;;;;;11.65;79.73;98867.13;7365913;19;20005;-58
2023/01/12 05:48:10;;;;;;;0.00;0.00;;;;;;;11.66;79.67;98855.75;7363751;19;21068;-57
2023/01/12 05:50:36;;;;;;;0.10;0.10;;;;;;;11.65;79.62;98856.66;7365596;19;20010;-57
2023/01/12 05:53:02;;;;;;;0.00;0.00;;;;;;;11.65;79.59;98864.50;7366255;19;20007;-57
2023/01/12 05:55:27;;;;;;;0.10;0.10;;;;;;;11.66;79.65;98853.16;7366713;19;20014;-57
2023/01/12 05:57:53;;;;;;;0.10;0.10;;;;;;;11.67;79.41;98854.81;7366771;19;20872;-57
2023/01/12 06:00:18;;;;;;;0.10;0.10;;;;;;;11.66;79.88;98853.16;7364187;19;20066;-57
2023/01/12 06:02:44;;;;;;;0.00;0.00;;;;;;;11.70;79.88;98857.25;7366550;19;20038;-57
2023/01/12 06:05:09;;;;;;;0.10;0.10;;;;;;;11.69;79.56;98850.34;7359576;19;20434;-57
2023/01/12 06:07:36;;;;;;;0.10;0.10;;;;;;;11.65;79.83;98827.91;7366340;19;20014;-57
2023/01/12 06:10:03;;;;;;;0.00;0.00;;;;;;;11.70;79.86;98849.41;7363415;19;20038;-57
2023/01/12 06:15:12;;;;;;;0.10;0.10;;;;;;;11.73;79.38;98842.31;7364825;19;20022;-57
2023/01/12 06:17:38;;;;;;;0.00;0.00;;;;;;;11.68;79.53;98830.34;7366415;19;21056;-57
2023/01/12 06:20:05;;;;;;;0.03;0.03;;;;;;;11.73;79.81;98837.94;7360730;19;20031;-57
2023/01/12 06:22:30;;;;;;;0.10;0.10;;;;;;;11.73;79.49;98831.88;7365283;19;20492;-57
2023/01/12 06:24:55;;;;;;;0.03;0.03;;;;;;;11.74;79.36;98828.31;7366087;19;20014;-57
2023/01/12 06:27:21;;;;;;;0.10;0.10;;;;;;;11.78;79.36;98837.69;7366364;19;20093;-57
2023/01/12 06:29:46;;;;;;;0.10;0.10;;;;;;;11.69;79.45;98815.50;7361166;19;20010;-57
2023/01/12 06:32:12;;;;;;;0.00;0.00;;;;;;;11.79;79.38;98827.13;7363091;19;21343;-57
2023/01/12 06:34:37;;;;;;;0.10;0.10;;;;;;;11.79;79.14;98810.59;7359861;19;20010;-57
2023/01/12 06:37:03;;;;;;;0.10;0.10;;;;;;;11.79;79.26;98807.97;7363481;19;20078;-57
2023/01/12 06:39:29;;;;;;;0.10;0.10;;;;;;;11.79;79.42;98815.81;7362963;19;21191;-57
2023/01/12 06:44:38;;;;;;;0.10;0.10;;;;;;;11.82;79.09;98813.06;7360491;19;20037;-57
2023/01/12 06:47:05;;;;;;;0.10;0.10;;;;;;;11.83;79.10;98806.91;7365839;19;20479;-57
2023/01/12 06:49:30;;;;;;;0.00;0.00;;;;;;;11.84;79.08;98819.88;7362342;19;20522;-57
2023/01/12 06:51:55;;;;;;;0.10;0.10;;;;;;;11.83;79.38;98809.53;7365782;19;20057;-57
2023/01/12 06:54:21;;;;;;;0.00;0.00;;;;;;;11.83;78.93;98796.44;7360009;19;20025;-57
2023/01/12 06:56:46;;;;;;;0.10;0.10;;;;;;;11.85;79.11;98799.81;7366417;19;20014;-58
2023/01/12 06:59:12;;;;;;;0.10;0.10;;;;;;;11.86;79.29;98789.28;7352223;19;20025;-57
2023/01/12 07:01:39;;;;;;;0.05;0.05;;;;;;;11.89;79.55;98801.31;7366685;19;20512;-57
2023/01/12 07:04:04;;;;;;;0.00;0.00;;;;;;;11.91;79.39;98788.97;7360605;19;20847;-57
2023/01/12 07:06:30;;;;;;;0.00;0.00;;;;;;;11.90;78.82;98776.84;7359580;19;20014;-57
2023/01/12 07:08:55;;;;;;;0.10;0.10;;;;;;;11.93;78.81;98776.66;7359563;19;20132;-57
2023/01/12 07:11:21;;;;;;;0.10;0.10;;;;;;;11.93;79.34;98779.28;7355625;19;20075;-57
2023/01/12 07:13:46;;;;;;;0.10;0.10;;;;;;;11.94;79.11;98778.34;7360342;19;20014;-57
2023/01/12 07:16:11;;;;;;;0.10;0.10;;;;;;;11.96;78.94;98776.47;7362164;19;20018;-56
2023/01/12 07:18:37;;;;;;;0.10;0.10;;;;;;;11.97;79.33;98767.72;7360065;19;20006;-58
2023/01/12 07:21:07;;;;;;;0.10;0.10;;;;;;;11.95;78.96;98772.19;7360767;19;20026;-57
2023/01/12 07:23:33;;;;;;;0.10;0.10;;;;;;;11.98;79.32;98774.63;7362485;19;20094;-56
2023/01/12 07:25:59;;;;;;;0.10;0.10;;;;;;;12.00;78.83;98746.59;7361327;19;20022;-57
2023/01/12 07:28:24;;;;;;;0.00;0.00;;;;;;;12.01;79.21;98756.09;7357485;19;20031;-57
2023/01/12 07:30:50;;;;;;;0.05;0.05;;;;;;;12.04;78.81;98757.72;7357832;19;20039;-57
2023/01/12 07:33:15;;;;;;;0.00;0.00;;;;;;;12.04;78.67;98747.25;7358222;19;20003;-57
2023/01/12 07:35:41;;;;;;;0.10;0.10;;;;;;;12.02;78.67;98760.44;7360501;19;20010;-57
2023/01/12 07:38:08;;;;;;;0.10;0.10;;;;;;;12.05;78.98;98755.00;7361197;19;20378;-57
2023/01/12 07:40:33;;;;;;;0.10;0.10;;;;;;;12.03;78.93;98733.34;7360469;19;20366;-57
2023/01/12 07:43:07;;;;;;;0.00;0.00;;;;;;;12.04;78.39;98726.31;7359424;19;20010;-58
2023/01/12 07:45:33;;;;;;;0.08;0.08;;;;;;;12.00;78.37;98750.97;7359764;19;20014;-57
2023/01/12 07:47:59;;;;;;;0.10;0.10;;;;;;;11.93;78.70;98724.34;7360954;19;20491;-57
2023/01/12 07:50:27;;;;;;;0.10;0.10;;;;;;;11.93;78.58;98734.81;7355715;19;20010;-56
2023/01/12 07:52:53;;;;;;;0.00;0.00;;;;;;;11.91;78.48;98732.31;7352102;19;20582;-58
2023/01/12 07:55:19;;;;;;;0.10;0.10;;;;;;;11.89;78.55;98764.69;7351458;19;20010;-57
2023/01/12 07:57:55;;;;;;;0.10;0.10;;;;;;;11.88;78.48;98739.47;7358569;19;20018;-57
2023/01/12 08:00:22;;;;;;;0.10;0.10;;;;;;;11.84;78.56;98751.06;7355334;19;20847;-56
2023/01/12 08:02:52;;;;;;;0.07;0.07;;;;;;;11.73;78.54;98737.75;7335212;19;20050;-56
2023/01/12 08:05:18;;;;;;;0.08;0.08;;;;;;;11.83;79.15;98762.44;7354431;19;20019;-57
2023/01/12 08:07:43;;;;;;;0.10;0.10;;;;;;;11.80;79.01;98741.66;7361153;19;20055;-57
2023/01/12 08:10:11;;;;;;;0.00;0.00;;;;;;;11.68;78.94;98728.38;7361126;19;20027;-57
2023/01/12 08:12:37;;;;;;;0.10;0.10;;;;;;;11.81;79.11;98756.41;7361205;19;20011;-56
2023/01/12 08:15:03;;;;;;;0.00;0.00;;;;;;;11.73;78.80;98737.75;7345591;19;26427;-57
2023/01/12 08:17:33;;;;;;;0.00;0.00;;;;;;;11.83;78.71;98738.91;7359005;19;20010;-57
2023/01/12 08:20:09;;;;;;;0.03;0.03;;;;;;;11.72;78.21;98749.97;7359842;19;20044;-57
2023/01/12 08:22:41;;;;;;;0.10;0.10;;;;;;;11.80;78.22;98765.19;7361039;19;20477;-55
2023/01/12 08:25:11;;;;;;;0.03;0.03;;;;;;;11.78;77.49;98735.69;7369108;19;20986;-57
2023/01/12 08:27:39;;;;;;;0.10;0.10;;;;;;;11.73;77.76;98753.44;7361277;19;20034;-57
2023/01/12 08:30:07;;;;;;;0.00;0.00;;;;;;;11.69;77.18;98750.97;7361532;19;20027;-57
2023/01/12 08:32:35;;;;;;;0.00;0.00;;;;;;;11.64;77.05;98750.41;7354902;19;20007;-57
2023/01/12 08:35:03;;;;;;;0.00;0.00;;;;;;;11.65;76.40;98798.31;7354848;19;20006;-55
2023/01/12 08:37:31;;;;;;;0.08;0.08;;;;;;;11.58;76.44;98761.22;7360454;19;20017;-57
2023/01/12 08:39:57;;;;;;;0.00;0.00;;;;;;;11.50;75.68;98746.91;7360257;19;20359;-57
2023/01/12 08:42:24;;;;;;;0.10;0.10;;;;;;;11.48;75.73;98744.38;7360271;19;20026;-57
2023/01/12 08:44:49;;;;;;;0.00;0.00;;;;;;;11.43;75.62;98741.19;7360153;19;20033;-56
2023/01/12 08:47:20;;;;;;;0.10;0.10;;;;;;;11.40;75.59;98747.47;7359647;19;20105;-57
2023/01/12 08:49:46;;;;;;;0.08;0.08;;;;;;;11.27;75.42;98722.09;7359571;19;20013;-57
2023/01/12 08:52:13;;;;;;;0.10;0.10;;;;;;;11.28;75.20;98752.53;7367263;19;20030;-57
2023/01/12 08:54:38;;;;;;;0.00;0.00;;;;;;;11.22;75.14;98742.44;7357643;19;20029;-57
2023/01/12 08:57:03;;;;;;;0.10;0.10;;;;;;;11.16;75.37;98759.28;7368043;19;23066;-56
2023/01/12 08:59:29;;;;;;;0.10;0.10;;;;;;;11.13;75.37;98746.41;7364632;19;20738;-57
2023/01/12 09:01:55;;;;;;;0.10;0.10;;;;;;;11.08;75.39;98738.81;7367933;19;20018;-57
2023/01/12 09:04:20;;;;;;;0.00;0.00;;;;;;;11.09;75.32;98739.66;7365019;19;20073;-57
2023/01/12 09:06:47;;;;;;;0.10;0.10;;;;;;;11.08;74.53;98757.09;7369087;19;20411;-57
2023/01/12 09:09:15;;;;;;;0.10;0.10;;;;;;;11.07;73.71;98760.63;7367488;19;20018;-57
2023/01/12 09:11:42;;;;;;;0.10;0.10;;;;;;;11.06;73.54;98764.19;7368491;19;20006;-58
2023/01/12 09:14:12;;;;;;;0.10;0.10;;;;;;;11.05;72.75;98777.31;7368735;19;20011;-57
2023/01/12 09:16:38;;;;;;;0.08;0.08;;;;;;;10.99;72.30;98761.97;7367422;19;20471;-57
2023/01/12 09:19:04;;;;;;;0.10;0.10;;;;;;;10.95;71.85;98766.56;7365641;19;20118;-55
2023/01/12 09:21:31;;;;;;;0.05;0.05;;;;;;;10.88;71.89;98781.69;7368525;19;20090;-57
2023/01/12 09:23:57;;;;;;;0.00;0.00;;;;;;;10.80;72.07;98775.22;7364807;19;20010;-56
2023/01/12 09:26:30;;;;;;;0.10;0.10;;;;;;;10.75;72.65;98788.53;7366706;19;20578;-56
2023/01/12 09:29:01;;;;;;;0.05;0.05;;;;;;;10.68;72.72;98828.09;7368279;19;20006;-56
2023/01/12 09:31:28;;;;;;;0.00;0.00;;;;;;;10.55;72.60;98794.81;7366125;19;20014;-56
2023/01/12 09:33:54;;;;;;;0.00;0.00;;;;;;;10.55;72.41;98862.66;7367862;19;20109;-57
2023/01/12 09:36:25;;;;;;;0.00;0.00;;;;;;;10.46;72.47;98795.28;7365285;19;20014;-57
2023/01/12 09:38:51;;;;;;;0.05;0.05;;;;;;;10.37;72.99;98806.22;7368270;19;20021;-57
2023/01/12 09:47:24;;;;;;;0.00;0.00;;;;;;;10.09;73.71;98781.53;7265779;19;2004342;-57
2023/01/12 09:50:21;;;;;;;0.10;0.10;;;;;;;10.01;74.12;98799.31;7363767;19;20459;-57
2023/01/12 09:52:56;;;;;;;0.00;0.00;;;;;;;9.94;73.93;98813.59;7264043;19;2004455;-56
2023/01/12 09:55:24;;;;;;;0.10;0.10;;;;;;;9.88;74.06;98821.69;7367266;19;20036;-57
2023/01/12 09:58:26;;;;;;;0.10;0.10;;;;;;;9.83;74.46;98797.63;7365918;19;21294;-57
2023/01/12 10:00:57;;;;;;;0.03;0.03;;;;;;;9.64;74.26;98802.94;7263660;19;2004000;-57
2023/01/12 10:03:28;;;;;;;0.00;0.00;;;;;;;9.71;74.52;98796.50;7362908;19;20014;-56
2023/01/12 10:05:57;;;;;;;0.00;0.00;;;;;;;9.57;74.80;98791.09;7363290;19;20022;-56
2023/01/12 10:08:37;;;;;;;0.10;0.10;;;;;;;9.62;74.99;98829.03;7364154;19;20042;-57
2023/01/12 10:11:27;;;;;;;0.10;0.10;;;;;;;9.66;74.91;98813.28;7363385;19;20039;-57
2023/01/12 10:14:23;;;;;;;0.10;0.10;;;;;;;9.67;74.98;98828.81;7366056;19;20010;-56
2023/01/12 10:16:57;;;;;;;0.10;0.10;;;;;;;9.68;74.97;98801.88;7262562;19;2004526;-56
2023/01/12 10:19:56;;;;;;;0.10;0.10;;;;;;;9.69;74.79;98847.03;7365049;19;20022;-57
2023/01/12 10:22:36;;;;;;;0.10;0.10;;;;;;;9.70;74.80;98797.41;7264917;19;2004215;-57
2023/01/12 10:25:35;;;;;;;0.10;0.10;;;;;;;9.75;74.38;98818.03;7366463;19;20009;-57
2023/01/12 10:28:07;;;;;;;0.10;0.10;;;;;;;9.74;74.42;98800.72;7260956;19;2004547;-57
2023/01/12 10:30:36;;;;;;;0.00;0.00;;;;;;;9.75;74.37;98815.44;7365527;19;20017;-56
2023/01/12 10:33:13;;;;;;;0.00;0.00;;;;;;;9.77;74.15;98805.75;7361108;19;20735;-57
2023/01/12 10:35:51;;;;;;;0.10;0.10;;;;;;;9.78;74.21;98797.00;7366254;19;20010;-55
2023/01/12 10:38:21;;;;;;;0.05;0.05;;;;;;;9.82;73.94;98803.78;7366451;19;20007;-57
2023/01/12 10:41:09;;;;;;;0.10;0.10;;;;;;;9.90;74.83;98801.63;7363431;19;20098;-57
2023/01/12 10:43:40;;;;;;;0.05;0.05;;;;;;;9.97;75.08;98789.97;7365895;19;20010;-57
2023/01/12 10:46:12;;;;;;;0.00;0.00;;;;;;;10.13;75.24;98823.94;7365121;19;20475;-57
2023/01/12 10:48:42;;;;;;;0.10;0.10;;;;;;;10.31;74.68;98798.72;7366309;19;20462;-57
2023/01/12 10:51:20;;;;;;;0.10;0.10;;;;;;;10.52;75.24;98802.78;7362753;19;20018;-58
2023/01/12 10:53:54;;;;;;;0.10;0.10;;;;;;;10.74;73.29;98799.03;7362953;19;20041;-56
2023/01/12 10:56:40;;;;;;;0.00;0.00;;;;;;;10.96;72.60;98843.97;7367186;19;21190;-56
2023/01/12 10:59:11;;;;;;;0.10;0.10;;;;;;;11.11;70.92;98819.63;7363306;19;20014;-57
2023/01/12 11:01:49;;;;;;;0.00;0.00;;;;;;;11.25;70.94;98852.81;7370551;19;20448;-57
2023/01/12 11:04:22;;;;;;;0.10;0.10;;;;;;;11.37;69.96;98840.88;7360965;19;20017;-56
2023/01/12 11:06:58;;;;;;;0.10;0.10;;;;;;;11.45;69.81;98820.34;7363259;19;20530;-56
2023/01/12 11:09:26;;;;;;;0.10;0.10;;;;;;;11.52;69.89;98818.25;7367380;19;20009;-56
2023/01/12 11:11:53;;;;;;;0.00;0.00;;;;;;;11.63;68.32;98824.53;7365404;19;20836;-57
2023/01/12 11:14:25;;;;;;;0.10;0.10;;;;;;;11.73;69.08;98800.50;7362627;19;20469;-57
2023/01/12 11:16:50;;;;;;;0.03;0.03;;;;;;;11.76;67.94;98803.78;7362145;19;20011;-57
2023/01/12 11:19:25;;;;;;;0.10;0.10;;;;;;;11.85;68.54;98765.81;7362935;19;25374;-56
2023/01/12 11:21:56;;;;;;;0.10;0.10;;;;;;;11.74;67.62;98781.25;7369211;19;20011;-57
2023/01/12 11:24:27;;;;;;;0.10;0.10;;;;;;;11.82;68.00;98805.22;7364891;19;20078;-56
2023/01/12 11:27:16;;;;;;;0.10;0.10;;;;;;;11.82;68.52;98826.16;7364084;19;20021;-56
2023/01/12 11:30:02;;;;;;;0.00;0.00;;;;;;;11.74;68.34;98778.63;7362497;19;20632;-57
2023/01/12 11:32:42;;;;;;;0.00;0.00;;;;;;;11.83;67.63;98785.97;7363104;19;20022;-57
2023/01/12 11:35:25;;;;;;;0.00;0.00;;;;;;;11.81;67.89;98787.78;7363617;19;20797;-57
2023/01/12 11:37:56;;;;;;;0.10;0.10;;;;;;;11.71;67.51;98790.13;7363707;19;20010;-56
2023/01/12 11:40:33;;;;;;;0.00;0.00;;;;;;;11.85;67.00;98786.72;7357564;19;20018;-56
2023/01/12 11:46:25;;;;;;;0.10;0.10;;;;;;;11.76;66.44;98763.69;7257324;19;2004543;-55
2023/01/12 11:48:56;;;;;;;0.00;0.00;;;;;;;11.67;65.84;98765.94;7360511;19;20010;-56
2023/01/12 11:51:22;;;;;;;0.00;0.00;;;;;;;11.64;66.02;98767.88;7361035;19;20021;-57
2023/01/12 11:53:48;;;;;;;0.00;0.00;;;;;;;11.57;65.79;98770.00;7359531;19;20388;-56
2023/01/12 11:56:16;;;;;;;0.10;0.10;;;;;;;11.57;65.78;98783.06;7362062;19;20006;-57
2023/01/12 11:59:18;;;;;;;0.10;0.10;;;;;;;11.63;66.46;98774.88;7359091;19;20047;-57
2023/01/12 12:02:15;;;;;;;0.10;0.10;;;;;;;11.70;66.83;98775.34;7259588;19;2004004;-56
2023/01/12 12:04:52;;;;;;;0.00;0.00;;;;;;;11.80;66.68;98747.72;7257822;19;2004419;-57
2023/01/12 12:07:39;;;;;;;0.00;0.00;;;;;;;11.90;66.24;98758.53;7361223;19;20007;-56
2023/01/12 12:10:31;;;;;;;0.03;0.03;;;;;;;12.00;66.79;98746.59;7359593;19;20007;-56
2023/01/12 12:12:57;;;;;;;0.10;0.10;;;;;;;12.08;66.10;98723.44;7257186;19;2005574;-57
2023/01/12 12:15:36;;;;;;;0.10;0.10;;;;;;;12.28;65.26;98735.31;7360133;19;20018;-56
2023/01/12 12:18:18;;;;;;;0.10;0.10;;;;;;;12.48;64.72;98726.22;7358971;19;20385;-57
2023/01/12 12:21:09;;;;;;;0.10;0.10;;;;;;;12.61;64.40;98715.81;7359190;19;20014;-56